Time;durP1;ratioP1;P1;durP2;ratioP2;P2;SDS_P1;SDS_P2;PMS_P1;PMS_P2;Temp;Humidity;BMP_temperature;BMP_pressure;BME280_temperature;BME280_humidity;BME280_pressure;Samples;Min_cycle;Max_cycle;Signal;HPM_P1;HPM_P2
2022/10/01 00:00:04;;;;;;;18.02;16.50;;;8.50;99.90;;;;;;5022744;28;20041;-69
2022/10/01 00:02:37;;;;;;;17.60;16.40;;;8.50;99.90;;;;;;5037326;28;20614;-70
2022/10/01 00:05:06;;;;;;;19.33;17.42;;;8.50;99.90;;;;;;5026453;28;20110;-68
2022/10/01 00:07:42;;;;;;;18.63;17.33;;;8.50;99.90;;;;;;5025372;28;20040;-68
2022/10/01 00:10:12;;;;;;;18.70;17.10;;;8.50;99.90;;;;;;5021368;28;20055;-68
2022/10/01 00:12:45;;;;;;;18.17;16.73;;;8.50;99.90;;;;;;5029185;28;20049;-68
2022/10/01 00:15:14;;;;;;;17.95;16.58;;;8.50;99.90;;;;;;5027110;28;20114;-67
2022/10/01 00:17:42;;;;;;;18.35;16.88;;;8.50;99.90;;;;;;5027714;28;20052;-68
2022/10/01 00:20:10;;;;;;;17.17;15.95;;;8.50;99.90;;;;;;5032071;28;20234;-67
2022/10/01 00:22:40;;;;;;;17.70;15.98;;;8.40;99.90;;;;;;5021133;28;20044;-68
2022/10/01 00:25:07;;;;;;;17.02;15.82;;;8.40;99.90;;;;;;5028436;28;20147;-70
2022/10/01 00:27:35;;;;;;;16.42;15.13;;;8.40;99.90;;;;;;5030313;28;20277;-69
2022/10/01 00:30:03;;;;;;;17.38;15.80;;;8.40;99.90;;;;;;5045174;28;20052;-69
2022/10/01 00:32:32;;;;;;;17.00;15.73;;;8.40;99.90;;;;;;5021535;28;20468;-69
2022/10/01 00:34:59;;;;;;;17.33;16.02;;;8.40;99.90;;;;;;5044512;28;20041;-69
2022/10/01 00:37:26;;;;;;;16.95;15.65;;;8.40;99.90;;;;;;5035537;28;20054;-69
2022/10/01 00:39:52;;;;;;;17.55;16.20;;;8.40;99.90;;;;;;5030939;28;20044;-69
2022/10/01 00:42:25;;;;;;;17.73;16.40;;;8.40;99.90;;;;;;5024782;28;20509;-70
2022/10/01 00:44:52;;;;;;;17.15;15.65;;;8.40;99.90;;;;;;5015336;28;20591;-67
2022/10/01 00:47:27;;;;;;;17.55;16.15;;;8.40;99.90;;;;;;5020850;28;20082;-67
2022/10/01 00:50:20;;;;;;;17.88;16.55;;;8.40;99.90;;;;;;5032679;28;20045;-67
2022/10/01 00:52:53;;;;;;;16.70;15.48;;;8.30;99.90;;;;;;5019139;28;20118;-67
2022/10/01 00:55:27;;;;;;;15.95;14.93;;;8.30;99.90;;;;;;5039162;28;20259;-67
2022/10/01 00:57:55;;;;;;;16.58;15.13;;;8.40;99.90;;;;;;5023983;28;20055;-69
2022/10/01 01:00:22;;;;;;;16.60;15.30;;;8.40;99.90;;;;;;5020336;28;20040;-67
2022/10/01 01:02:49;;;;;;;16.35;15.13;;;8.40;99.90;;;;;;5041072;28;20442;-67
2022/10/01 01:05:17;;;;;;;15.93;14.88;;;8.40;99.90;;;;;;5039131;28;20041;-67
2022/10/01 01:07:47;;;;;;;16.55;15.40;;;8.40;99.90;;;;;;5024583;28;20102;-67
2022/10/01 01:10:17;;;;;;;16.83;15.52;;;8.40;99.90;;;;;;5060017;23;20119;-66
2022/10/01 01:13:21;;;;;;;16.65;15.40;;;8.50;99.90;;;;;;5017629;28;20052;-66
2022/10/01 01:16:19;;;;;;;16.77;15.35;;;8.50;99.90;;;;;;5035889;28;20048;-66
2022/10/01 01:19:19;;;;;;;15.70;14.48;;;8.50;99.90;;;;;;5035249;28;20091;-69
2022/10/01 01:21:52;;;;;;;15.38;14.38;;;8.60;99.90;;;;;;5015616;28;20042;-68
2022/10/01 01:24:46;;;;;;;16.25;15.05;;;8.60;99.90;;;;;;5004640;28;20046;-69
2022/10/01 01:27:36;;;;;;;16.45;15.35;;;8.60;99.90;;;;;;5002530;28;20044;-68
2022/10/01 01:30:10;;;;;;;15.55;14.55;;;8.70;99.90;;;;;;4999363;28;20053;-68
2022/10/01 01:32:51;;;;;;;16.00;14.98;;;8.70;99.90;;;;;;5007362;28;20058;-68
2022/10/01 01:35:30;;;;;;;16.92;15.43;;;8.70;99.90;;;;;;5006998;28;20076;-68
2022/10/01 01:38:05;;;;;;;16.63;15.52;;;8.70;99.90;;;;;;5010558;28;20442;-68
2022/10/01 01:40:35;;;;;;;;;;;8.80;99.90;;;;;;5008840;28;20132;-68
2022/10/01 01:43:06;;;;;;;16.55;15.32;;;8.80;99.90;;;;;;5009630;28;19921;-68
2022/10/01 01:45:34;;;;;;;16.88;15.65;;;8.70;99.90;;;;;;5009739;28;20481;-68
2022/10/01 01:48:03;;;;;;;16.67;15.40;;;8.80;99.90;;;;;;5012564;28;20402;-68
2022/10/01 01:50:37;;;;;;;16.50;15.20;;;8.80;99.90;;;;;;5001933;28;20049;-68
2022/10/01 01:53:04;;;;;;;16.15;15.15;;;8.80;99.90;;;;;;5005845;28;20479;-65
2022/10/01 01:55:33;;;;;;;16.42;15.18;;;8.80;99.90;;;;;;5001688;28;20243;-66
2022/10/01 01:58:01;;;;;;;16.67;15.48;;;8.80;99.90;;;;;;5004843;28;20052;-65
2022/10/01 02:00:28;;;;;;;17.05;15.77;;;8.80;99.90;;;;;;5004501;28;20097;-68
2022/10/01 02:02:56;;;;;;;17.38;15.90;;;8.80;99.90;;;;;;5007935;28;20052;-69
2022/10/01 02:05:28;;;;;;;16.55;15.48;;;8.90;99.90;;;;;;5007465;28;20046;-67
2022/10/01 02:08:01;;;;;;;17.70;16.27;;;8.90;99.90;;;;;;5011876;28;20068;-68
2022/10/01 02:10:46;;;;;;;16.13;15.02;;;9.00;99.90;;;;;;5008972;28;20049;-66
2022/10/01 02:13:33;;;;;;;17.20;16.00;;;9.00;99.90;;;;;;5011650;28;20045;-67
2022/10/01 02:16:10;;;;;;;16.55;15.45;;;9.00;99.90;;;;;;5004922;28;20046;-68
2022/10/01 02:19:00;;;;;;;16.85;15.57;;;9.00;99.90;;;;;;5002563;28;21076;-68
2022/10/01 02:21:40;;;;;;;16.98;16.08;;;9.00;99.90;;;;;;5021661;28;20045;-68
2022/10/01 02:24:30;;;;;;;17.80;16.48;;;9.00;99.90;;;;;;5014883;28;20049;-68
2022/10/01 02:27:00;;;;;;;17.50;16.25;;;9.10;99.90;;;;;;5006070;28;20053;-67
2022/10/01 02:29:28;;;;;;;17.77;16.48;;;9.10;99.90;;;;;;5000826;28;20037;-67
2022/10/01 02:31:56;;;;;;;16.42;15.45;;;9.10;99.90;;;;;;5005380;28;20033;-68
2022/10/01 02:34:27;;;;;;;17.52;16.35;;;9.10;99.90;;;;;;5004657;28;20053;-67
2022/10/01 02:36:56;;;;;;;18.75;17.15;;;9.10;99.90;;;;;;5012498;28;20041;-67
2022/10/01 02:39:25;;;;;;;18.63;17.30;;;9.10;99.90;;;;;;5004332;28;20064;-66
2022/10/01 02:41:54;;;;;;;18.23;16.77;;;9.20;99.90;;;;;;5004356;28;20073;-68
2022/10/01 02:44:30;;;;;;;17.80;16.48;;;9.10;99.90;;;;;;5005823;28;20030;-68
2022/10/01 02:47:16;;;;;;;17.92;16.63;;;9.10;99.90;;;;;;5009366;28;20046;-67
2022/10/01 02:49:43;;;;;;;18.25;16.77;;;9.10;99.90;;;;;;5006899;28;20049;-67
2022/10/01 02:52:24;;;;;;;17.63;16.48;;;9.20;99.90;;;;;;5008914;28;20069;-68
2022/10/01 02:54:57;;;;;;;18.10;16.88;;;9.20;99.90;;;;;;5017363;28;20053;-68
2022/10/01 02:57:28;;;;;;;18.08;16.77;;;9.20;99.90;;;;;;5010356;28;20061;-67
2022/10/01 03:00:13;;;;;;;17.75;16.50;;;9.20;99.90;;;;;;5011159;28;20037;-67
2022/10/01 03:02:39;;;;;;;17.95;16.65;;;9.20;99.90;;;;;;5010507;28;20038;-67
2022/10/01 03:05:07;;;;;;;17.63;16.52;;;9.20;99.90;;;;;;5012949;28;20033;-68
2022/10/01 03:07:35;;;;;;;17.98;16.58;;;9.20;99.90;;;;;;5010439;28;20049;-68
2022/10/01 03:10:03;;;;;;;16.88;15.88;;;9.20;99.90;;;;;;5010252;28;20041;-67
2022/10/01 03:12:30;;;;;;;17.50;16.08;;;9.20;99.90;;;;;;5006621;28;20064;-67
2022/10/01 03:14:57;;;;;;;17.45;16.17;;;9.20;99.90;;;;;;5004324;28;20049;-67
2022/10/01 03:17:24;;;;;;;17.75;16.50;;;9.20;99.90;;;;;;5003166;28;20065;-66
2022/10/01 03:19:50;;;;;;;17.40;16.10;;;9.20;99.90;;;;;;5013032;28;20045;-68
2022/10/01 03:22:21;;;;;;;17.27;16.23;;;9.20;99.90;;;;;;5010335;28;20038;-67
2022/10/01 03:24:49;;;;;;;16.95;15.85;;;9.20;99.90;;;;;;5008625;28;20531;-68
2022/10/01 03:27:16;;;;;;;17.35;16.25;;;9.20;99.90;;;;;;5003573;28;20073;-68
2022/10/01 03:29:43;;;;;;;17.55;16.52;;;9.20;99.90;;;;;;5005793;28;20060;-68
2022/10/01 03:32:11;;;;;;;16.40;15.32;;;9.20;99.90;;;;;;5005992;28;20048;-68
2022/10/01 03:34:37;;;;;;;16.23;15.18;;;9.20;99.90;;;;;;5002739;28;20057;-69
2022/10/01 03:37:05;;;;;;;13.98;12.95;;;9.10;99.90;;;;;;5007750;28;20640;-70
2022/10/01 03:39:32;;;;;;;14.88;13.77;;;9.00;99.90;;;;;;5004594;28;20420;-71
2022/10/01 03:41:58;;;;;;;14.45;13.00;;;9.00;99.90;;;;;;5008510;28;20041;-70
2022/10/01 03:44:27;;;;;;;13.00;12.00;;;8.90;99.90;;;;;;5001252;28;20052;-69
2022/10/01 03:46:53;;;;;;;15.15;13.73;;;8.90;99.90;;;;;;5009950;28;20570;-70
2022/10/01 03:49:20;;;;;;;13.18;11.88;;;8.80;99.90;;;;;;5005394;28;20042;-69
2022/10/01 03:51:47;;;;;;;11.35;10.35;;;8.70;99.90;;;;;;5015579;28;20033;-72
2022/10/01 03:54:14;;;;;;;12.13;11.13;;;8.70;99.90;;;;;;5013263;28;20038;-71
2022/10/01 03:56:41;;;;;;;13.38;10.40;;;8.60;99.90;;;;;;5003167;28;20500;-71
2022/10/01 03:59:10;;;;;;;12.52;11.25;;;8.60;99.90;;;;;;5006510;28;20462;-71
2022/10/01 04:01:37;;;;;;;13.23;11.90;;;8.60;99.90;;;;;;5001245;28;20061;-71
2022/10/01 04:04:05;;;;;;;14.85;11.13;;;8.60;99.90;;;;;;5012414;28;20045;-72
2022/10/01 04:06:32;;;;;;;12.07;9.98;;;8.50;99.90;;;;;;5007932;28;20052;-72
2022/10/01 04:08:59;;;;;;;10.88;9.82;;;8.50;99.90;;;;;;5007880;28;20041;-71
2022/10/01 04:11:25;;;;;;;11.05;9.95;;;8.50;99.90;;;;;;5003137;28;20389;-71
2022/10/01 04:13:52;;;;;;;11.90;10.65;;;8.50;99.90;;;;;;5009503;28;20136;-72
2022/10/01 04:16:19;;;;;;;11.25;9.77;;;8.40;99.90;;;;;;5003445;28;20038;-71
2022/10/01 04:18:46;;;;;;;13.20;10.55;;;8.40;99.90;;;;;;5007372;28;20049;-70
2022/10/01 04:21:14;;;;;;;13.90;10.85;;;8.40;99.90;;;;;;5002904;28;20041;-71
2022/10/01 04:23:41;;;;;;;13.07;10.30;;;8.40;99.90;;;;;;5001568;28;20132;-71
2022/10/01 04:26:08;;;;;;;12.20;9.02;;;8.40;99.90;;;;;;5006924;28;20049;-70
2022/10/01 04:28:35;;;;;;;8.98;7.95;;;8.40;99.90;;;;;;5005875;28;20026;-70
2022/10/01 04:33:47;;;;;;;12.35;8.90;;;8.30;99.90;;;;;;5010305;28;20507;-70
2022/10/01 04:36:14;;;;;;;15.60;9.35;;;8.30;99.90;;;;;;5013410;28;20056;-70
2022/10/01 04:38:41;;;;;;;12.60;9.77;;;8.30;99.90;;;;;;5005557;28;20069;-70
2022/10/01 04:41:08;;;;;;;11.05;7.43;;;8.30;99.90;;;;;;5004197;28;20149;-71
2022/10/01 04:43:36;;;;;;;11.05;8.75;;;8.40;99.90;;;;;;5006541;28;20041;-70
2022/10/01 04:46:02;;;;;;;9.82;8.30;;;8.40;99.90;;;;;;5010740;28;20041;-70
2022/10/01 04:48:29;;;;;;;13.20;9.93;;;8.30;99.90;;;;;;5007222;28;20056;-70
2022/10/01 04:50:55;;;;;;;11.00;9.48;;;8.30;99.90;;;;;;5004860;28;20575;-70
2022/10/01 04:53:22;;;;;;;10.55;9.32;;;8.40;99.90;;;;;;5005629;28;20038;-71
2022/10/01 04:55:49;;;;;;;11.65;9.15;;;8.30;99.90;;;;;;5005115;28;20046;-70
2022/10/01 04:58:16;;;;;;;13.73;9.85;;;8.40;99.90;;;;;;5005268;28;20041;-70
2022/10/01 05:00:42;;;;;;;14.38;8.48;;;8.40;99.90;;;;;;5005458;28;20137;-70
2022/10/01 05:03:09;;;;;;;11.07;7.95;;;8.40;99.90;;;;;;5003998;28;20080;-69
2022/10/01 05:05:36;;;;;;;15.48;10.25;;;8.40;99.90;;;;;;5007387;28;20045;-70
2022/10/01 05:08:03;;;;;;;12.45;7.93;;;8.40;99.90;;;;;;5009290;28;20093;-69
2022/10/01 05:10:30;;;;;;;13.32;9.65;;;8.40;99.90;;;;;;5007212;28;20141;-69
2022/10/01 05:13:01;;;;;;;8.90;7.75;;;8.40;99.90;;;;;;5005231;28;20103;-72
2022/10/01 05:15:29;;;;;;;10.48;8.48;;;8.50;99.90;;;;;;5005504;28;20129;-70
2022/10/01 05:17:55;;;;;;;13.70;9.43;;;8.50;99.90;;;;;;5006255;28;20041;-69
2022/10/01 05:20:25;;;;;;;13.57;10.30;;;8.50;99.90;;;;;;4991708;28;20256;-70
2022/10/01 05:22:53;;;;;;;14.45;10.50;;;8.50;99.90;;;;;;5007423;28;20096;-69
2022/10/01 05:25:20;;;;;;;17.77;9.90;;;8.50;99.90;;;;;;4999783;28;20033;-70
2022/10/01 05:27:47;;;;;;;11.18;9.90;;;8.50;99.90;;;;;;5003641;28;20423;-70
2022/10/01 05:30:23;;;;;;;14.88;10.07;;;8.50;99.90;;;;;;5005859;28;20807;-70
2022/10/01 05:32:57;;;;;;;15.23;10.05;;;8.60;99.90;;;;;;5001824;28;20057;-69
2022/10/01 05:35:25;;;;;;;8.60;7.75;;;8.60;99.90;;;;;;4995259;28;20991;-70
2022/10/01 05:37:56;;;;;;;10.45;8.00;;;8.60;99.90;;;;;;5000854;28;20531;-70
2022/10/01 05:40:26;;;;;;;8.82;7.75;;;8.60;99.90;;;;;;4997631;28;20496;-69
2022/10/01 05:42:57;;;;;;;11.77;8.90;;;8.60;99.90;;;;;;5026623;28;20069;-69
2022/10/01 05:45:27;;;;;;;11.38;10.05;;;8.60;99.90;;;;;;5002011;28;20845;-70
2022/10/01 05:48:00;;;;;;;11.38;8.20;;;8.70;99.90;;;;;;5006614;28;20419;-70
2022/10/01 05:50:32;;;;;;;13.85;8.90;;;8.70;99.90;;;;;;5005670;28;20046;-70
2022/10/01 05:53:00;;;;;;;10.43;8.38;;;8.70;99.90;;;;;;5012350;28;20132;-68
2022/10/01 05:55:33;;;;;;;10.32;8.10;;;8.80;99.90;;;;;;5003357;28;20439;-68
2022/10/01 05:58:02;;;;;;;9.43;7.93;;;8.80;99.90;;;;;;5015215;28;20045;-68
2022/10/01 06:00:30;;;;;;;11.25;8.43;;;8.80;99.90;;;;;;5019442;28;20072;-68
2022/10/01 06:02:59;;;;;;;9.95;8.48;;;8.80;99.90;;;;;;5004658;28;20684;-69
2022/10/01 06:05:28;;;;;;;11.73;8.70;;;8.70;99.90;;;;;;5006587;28;20046;-69
2022/10/01 06:07:55;;;;;;;16.77;9.48;;;8.70;99.90;;;;;;5007193;28;20049;-69
2022/10/01 06:10:22;;;;;;;14.02;9.75;;;8.80;99.90;;;;;;5004963;28;20093;-70
2022/10/01 06:12:49;;;;;;;10.73;8.60;;;8.80;99.90;;;;;;5010199;28;20038;-70
2022/10/01 06:15:17;;;;;;;10.40;9.30;;;8.80;99.90;;;;;;5011126;28;20459;-69
2022/10/01 06:17:44;;;;;;;13.93;10.00;;;8.80;99.90;;;;;;5009172;28;20038;-69
2022/10/01 06:20:15;;;;;;;10.13;9.07;;;8.80;99.90;;;;;;5003930;28;20042;-69
2022/10/01 06:22:43;;;;;;;8.55;7.65;;;8.80;99.90;;;;;;5010839;28;20500;-68
2022/10/01 06:25:11;;;;;;;8.90;7.10;;;8.80;99.90;;;;;;5003214;28;20050;-69
2022/10/01 06:27:38;;;;;;;6.80;6.07;;;8.80;99.90;;;;;;5006411;28;20564;-68
2022/10/01 06:30:06;;;;;;;11.38;6.78;;;8.80;99.90;;;;;;5005195;28;20439;-66
2022/10/01 06:32:33;;;;;;;8.80;6.60;;;8.90;99.90;;;;;;5002369;28;20053;-68
2022/10/01 06:35:01;;;;;;;7.45;6.75;;;8.90;99.90;;;;;;5028210;28;20041;-68
2022/10/01 06:37:28;;;;;;;9.48;7.05;;;8.90;99.90;;;;;;5008721;28;20064;-69
2022/10/01 06:39:55;;;;;;;11.98;9.68;;;8.90;99.90;;;;;;5013236;28;20045;-68
2022/10/01 06:42:22;;;;;;;10.57;9.05;;;9.00;99.90;;;;;;5005251;28;20038;-68
2022/10/01 06:44:48;;;;;;;10.45;8.02;;;9.00;99.90;;;;;;5008004;28;20045;-68
2022/10/01 06:47:15;;;;;;;9.23;8.18;;;9.20;99.90;;;;;;5005184;28;20406;-67
2022/10/01 06:49:42;;;;;;;11.52;9.00;;;9.20;99.90;;;;;;5007808;28;20519;-69
2022/10/01 06:55:00;;;;;;;;;;;9.20;99.90;;;;;;5006761;28;20073;-68
2022/10/01 06:57:27;;;;;;;6.03;3.90;;;9.20;99.90;;;;;;5003584;28;19922;-70
2022/10/01 06:59:54;;;;;;;10.10;7.35;;;9.20;99.90;;;;;;5008328;28;20464;-69
2022/10/01 07:02:26;;;;;;;7.85;6.60;;;9.20;99.90;;;;;;5005906;28;20041;-69
2022/10/01 07:04:57;;;;;;;9.25;7.63;;;9.20;99.90;;;;;;5010896;28;20041;-70
2022/10/01 07:07:36;;;;;;;9.13;7.13;;;9.20;99.90;;;;;;5016649;28;20530;-69
2022/10/01 07:10:06;;;;;;;11.68;7.70;;;9.20;99.90;;;;;;5010658;28;20064;-69
2022/10/01 07:12:33;;;;;;;7.25;6.05;;;9.20;99.90;;;;;;5009847;28;20086;-70
2022/10/01 07:15:00;;;;;;;9.52;6.47;;;9.20;99.90;;;;;;5011718;28;20038;-70
2022/10/01 07:17:27;;;;;;;8.88;7.70;;;9.30;99.90;;;;;;5008342;28;20538;-71
2022/10/01 07:19:57;;;;;;;7.18;6.47;;;9.30;99.90;;;;;;5007003;28;20056;-69
2022/10/01 07:22:24;;;;;;;9.68;7.70;;;9.30;99.90;;;;;;5003008;28;20476;-70
2022/10/01 07:24:51;;;;;;;7.72;6.75;;;9.30;99.90;;;;;;5003982;28;20048;-70
2022/10/01 07:27:18;;;;;;;6.90;5.63;;;9.30;99.90;;;;;;5005875;28;20400;-70
2022/10/01 07:29:45;;;;;;;5.13;4.43;;;9.40;99.90;;;;;;5008392;28;20599;-70
2022/10/01 07:32:12;;;;;;;6.10;4.50;;;9.50;99.90;;;;;;5005949;28;20049;-70
2022/10/01 07:34:39;;;;;;;5.15;3.92;;;9.60;99.90;;;;;;5002211;28;20109;-70
2022/10/01 07:37:06;;;;;;;5.75;5.15;;;9.70;99.90;;;;;;5005208;28;20045;-69
2022/10/01 07:39:33;;;;;;;3.80;3.50;;;9.80;99.90;;;;;;5005309;28;20242;-70
2022/10/01 07:42:00;;;;;;;3.53;3.20;;;9.80;99.90;;;;;;5008230;28;20045;-70
2022/10/01 07:44:28;;;;;;;5.53;4.75;;;9.90;99.90;;;;;;5006930;28;20065;-70
2022/10/01 07:46:55;;;;;;;2.72;2.53;;;10.00;99.90;;;;;;5009741;28;20049;-70
2022/10/01 07:49:24;;;;;;;3.25;2.00;;;10.00;99.90;;;;;;5004353;28;20046;-69
2022/10/01 07:51:52;;;;;;;2.75;2.03;;;10.10;99.90;;;;;;5004056;28;20702;-69
2022/10/01 07:54:21;;;;;;;1.70;1.52;;;10.20;99.90;;;;;;5006994;28;20049;-70
2022/10/01 07:56:51;;;;;;;2.47;2.00;;;10.20;99.90;;;;;;5010341;28;20037;-69
2022/10/01 07:59:18;;;;;;;2.30;2.10;;;10.30;99.90;;;;;;5008516;28;20046;-70
2022/10/01 08:01:53;;;;;;;5.10;3.67;;;10.30;99.90;;;;;;5001632;28;20045;-70
2022/10/01 08:07:07;;;;;;;5.45;2.60;;;10.50;99.90;;;;;;5004419;28;20053;-69
2022/10/01 08:09:34;;;;;;;4.13;3.47;;;10.50;99.90;;;;;;5012766;28;20117;-69
2022/10/01 08:12:01;;;;;;;2.25;1.58;;;10.60;99.90;;;;;;5007183;28;20080;-69
2022/10/01 08:14:29;;;;;;;1.50;1.40;;;10.60;99.90;;;;;;5006152;28;20042;-69
2022/10/01 08:16:56;;;;;;;1.48;1.48;;;10.70;99.90;;;;;;5012005;28;20144;-69
2022/10/01 08:19:23;;;;;;;3.30;1.58;;;10.80;99.90;;;;;;5013769;28;20049;-69
2022/10/01 08:21:50;;;;;;;2.00;1.90;;;10.80;99.90;;;;;;5022194;28;20038;-69
2022/10/01 08:24:16;;;;;;;2.00;1.90;;;10.80;99.90;;;;;;5016353;28;20399;-69
2022/10/01 08:26:43;;;;;;;1.92;1.83;;;10.80;99.90;;;;;;5011911;28;20044;-69
2022/10/01 08:29:10;;;;;;;2.00;1.90;;;10.80;99.90;;;;;;5010090;28;20048;-69
2022/10/01 08:31:42;;;;;;;2.97;2.78;;;10.80;99.90;;;;;;5010224;28;20060;-69
2022/10/01 08:34:09;;;;;;;2.45;2.25;;;10.80;99.90;;;;;;5008904;28;20764;-69
2022/10/01 08:36:36;;;;;;;3.85;3.35;;;10.90;99.90;;;;;;5013107;28;20511;-69
2022/10/01 08:39:05;;;;;;;2.60;2.40;;;10.90;99.90;;;;;;5009156;28;20060;-69
2022/10/01 08:41:46;;;;;;;2.40;2.20;;;10.90;99.90;;;;;;5013853;28;20475;-69
2022/10/01 08:44:20;;;;;;;2.42;2.33;;;11.00;99.90;;;;;;5009597;28;20594;-69
2022/10/01 08:46:49;;;;;;;4.30;3.92;;;10.90;99.90;;;;;;5008102;28;20048;-69
2022/10/01 08:49:35;;;;;;;5.72;4.20;;;11.00;99.90;;;;;;5007007;28;20037;-69
2022/10/01 08:52:24;;;;;;;3.88;3.65;;;11.00;99.90;;;;;;5008138;28;20041;-69
2022/10/01 08:55:09;;;;;;;3.10;2.90;;;11.00;99.90;;;;;;5014103;28;20049;-70
2022/10/01 08:57:42;;;;;;;3.72;3.53;;;11.10;99.90;;;;;;5009914;28;20089;-68
2022/10/01 09:00:17;;;;;;;3.75;3.53;;;11.10;99.90;;;;;;5007642;28;20515;-68
2022/10/01 09:02:45;;;;;;;3.92;3.55;;;11.10;99.90;;;;;;5006025;28;20042;-73
2022/10/01 09:05:27;;;;;;;3.15;2.95;;;11.10;99.90;;;;;;5004460;28;20045;-74
2022/10/01 09:08:14;;;;;;;2.90;2.70;;;11.10;99.90;;;;;;5006889;28;20038;-71
2022/10/01 09:10:46;;;;;;;4.90;3.70;;;11.10;99.90;;;;;;5002346;28;20077;-74
2022/10/01 09:13:12;;;;;;;3.78;3.47;;;11.10;99.90;;;;;;5006498;28;20512;-74
2022/10/01 09:16:02;;;;;;;3.35;3.10;;;11.10;99.90;;;;;;5007034;28;20129;-74
2022/10/01 09:19:05;;;;;;;2.63;2.53;;;11.10;99.90;;;;;;5011380;28;20060;-74
2022/10/01 09:21:43;;;;;;;3.55;3.10;;;11.20;99.90;;;;;;5025383;28;20037;-74
2022/10/01 09:24:14;;;;;;;3.00;2.80;;;11.20;99.90;;;;;;4996543;28;20136;-74
2022/10/01 09:26:45;;;;;;;3.83;2.85;;;11.20;99.90;;;;;;5009897;28;20038;-74
2022/10/01 09:29:22;;;;;;;3.42;2.85;;;11.20;99.90;;;;;;5005141;28;20417;-74
2022/10/01 09:31:50;;;;;;;3.50;3.08;;;11.30;99.90;;;;;;5011602;28;20260;-71
2022/10/01 09:34:33;;;;;;;3.60;3.30;;;11.40;99.90;;;;;;5005584;28;20045;-76
2022/10/01 09:37:14;;;;;;;4.70;2.97;;;11.40;99.90;;;;;;5010187;28;20061;-72
2022/10/01 09:39:50;;;;;;;2.90;2.70;;;11.50;99.90;;;;;;5013287;28;20595;-72
2022/10/01 09:42:17;;;;;;;3.35;3.15;;;11.50;99.90;;;;;;5008024;28;20122;-72
2022/10/01 09:44:46;;;;;;;4.28;3.97;;;11.60;99.90;;;;;;4987350;28;20747;-72
2022/10/01 09:47:17;;;;;;;3.70;3.40;;;11.60;99.90;;;;;;5004667;28;20046;-72
2022/10/01 09:49:45;;;;;;;5.63;4.32;;;11.70;99.90;;;;;;5010981;28;20044;-72
2022/10/01 09:52:32;;;;;;;5.80;4.80;;;11.70;99.90;;;;;;5007182;28;20466;-72
2022/10/01 09:55:16;;;;;;;5.32;4.60;;;11.80;99.90;;;;;;5012370;28;20418;-72
2022/10/01 09:57:56;;;;;;;4.30;4.00;;;11.80;99.90;;;;;;5005639;28;20053;-72
2022/10/01 10:00:26;;;;;;;5.43;5.03;;;11.90;99.90;;;;;;5003770;28;20128;-72
2022/10/01 10:02:54;;;;;;;8.75;5.95;;;12.10;99.90;;;;;;5011194;28;20073;-72
2022/10/01 10:05:24;;;;;;;5.68;5.10;;;12.10;99.90;;;;;;5025442;28;20025;-73
2022/10/01 10:07:58;;;;;;;8.20;7.00;;;12.10;99.90;;;;;;5006724;28;20050;-71
2022/10/01 10:10:34;;;;;;;6.03;5.55;;;12.10;99.90;;;;;;5022987;28;20676;-71
2022/10/01 10:13:25;;;;;;;5.00;4.70;;;12.10;99.90;;;;;;5007184;28;20080;-72
2022/10/01 10:15:57;;;;;;;6.55;5.97;;;12.20;99.90;;;;;;5018499;28;20038;-72
2022/10/01 10:18:34;;;;;;;6.55;6.05;;;12.40;99.90;;;;;;5004664;28;20539;-73
2022/10/01 10:21:06;;;;;;;7.78;6.00;;;12.40;99.90;;;;;;5015741;28;20375;-73
2022/10/01 10:23:33;;;;;;;6.88;6.28;;;12.30;99.90;;;;;;5002808;28;20050;-73
2022/10/01 10:26:06;;;;;;;6.85;6.25;;;12.40;99.90;;;;;;5007974;28;20503;-72
2022/10/01 10:28:41;;;;;;;6.63;6.13;;;12.40;99.90;;;;;;5025817;28;20049;-73
2022/10/01 10:31:15;;;;;;;7.18;6.47;;;12.50;99.90;;;;;;5011402;28;20037;-73
2022/10/01 10:33:49;;;;;;;8.30;6.28;;;12.50;99.90;;;;;;5006192;28;20128;-73
2022/10/01 10:36:18;;;;;;;6.90;6.30;;;12.50;99.90;;;;;;5002898;28;20630;-72
2022/10/01 10:38:48;;;;;;;6.90;6.45;;;12.50;99.90;;;;;;5007050;28;20491;-71
2022/10/01 10:41:18;;;;;;;7.78;6.80;;;12.60;99.90;;;;;;5000296;28;20042;-70
2022/10/01 10:43:47;;;;;;;8.90;8.15;;;12.70;99.90;;;;;;5010900;28;20398;-69
2022/10/01 10:46:31;;;;;;;10.60;8.48;;;12.80;99.90;;;;;;5009507;28;20053;-70
2022/10/01 10:49:04;;;;;;;10.73;9.75;;;12.90;99.90;;;;;;5009571;28;20081;-70
2022/10/01 10:51:52;;;;;;;10.27;9.10;;;12.90;99.90;;;;;;5008889;28;20042;-70
2022/10/01 10:54:31;;;;;;;10.25;9.55;;;12.90;99.90;;;;;;5012379;28;20041;-70
2022/10/01 10:57:09;;;;;;;11.35;10.25;;;12.90;99.90;;;;;;5012230;28;20042;-70
2022/10/01 10:59:36;;;;;;;12.50;11.05;;;12.90;99.90;;;;;;5007691;28;20038;-70
2022/10/01 11:02:04;;;;;;;13.85;10.65;;;13.00;99.90;;;;;;5009969;28;20615;-71
2022/10/01 11:04:44;;;;;;;10.23;9.60;;;13.00;99.90;;;;;;5011933;28;20052;-70
2022/10/01 11:07:18;;;;;;;11.85;10.70;;;13.00;99.90;;;;;;4994355;28;20038;-70
2022/10/01 11:09:57;;;;;;;9.98;9.23;;;13.10;99.90;;;;;;5009254;28;20766;-69
2022/10/01 11:12:43;;;;;;;11.60;10.48;;;13.10;99.90;;;;;;5004711;28;20052;-71
2022/10/01 11:15:36;;;;;;;11.40;10.18;;;13.20;99.90;;;;;;5027926;28;20737;-71
2022/10/01 11:18:42;;;;;;;9.82;9.20;;;13.40;99.90;;;;;;5010186;28;20052;-71
2022/10/01 11:21:11;;;;;;;11.43;10.38;;;13.50;99.90;;;;;;5024923;28;20436;-70
2022/10/01 11:24:05;;;;;;;12.23;11.20;;;13.60;99.90;;;;;;5015726;28;20045;-70
2022/10/01 11:26:46;;;;;;;10.52;9.82;;;13.70;99.90;;;;;;5008890;28;20038;-70
2022/10/01 11:29:39;;;;;;;12.02;11.13;;;13.60;99.90;;;;;;5007910;28;20034;-70
2022/10/01 11:32:24;;;;;;;12.68;11.77;;;13.50;99.90;;;;;;5013104;28;20041;-68
2022/10/01 11:35:00;;;;;;;12.38;11.52;;;13.50;99.90;;;;;;5009125;28;20049;-71
2022/10/01 11:37:46;;;;;;;12.43;11.52;;;13.50;99.90;;;;;;5004519;28;20054;-70
2022/10/01 11:40:25;;;;;;;12.60;11.50;;;13.50;99.90;;;;;;5007862;28;20056;-69
2022/10/01 11:43:03;;;;;;;13.38;12.07;;;13.60;99.90;;;;;;5016190;28;20037;-70
2022/10/01 11:45:39;;;;;;;13.10;12.27;;;13.60;99.90;;;;;;5010220;28;20557;-71
2022/10/01 11:48:12;;;;;;;13.68;12.57;;;13.70;99.90;;;;;;5032670;28;20045;-70
2022/10/01 11:50:47;;;;;;;13.60;12.30;;;13.70;99.90;;;;;;5001965;28;21035;-69
2022/10/01 11:53:20;;;;;;;13.32;12.23;;;13.80;99.90;;;;;;5006077;28;20042;-72
2022/10/01 11:59:01;;;;;;;13.98;12.82;;;13.70;99.90;;;;;;5012437;28;21196;-71
2022/10/01 12:02:01;;;;;;;16.65;14.93;;;13.60;99.90;;;;;;5006743;28;20049;-71
2022/10/01 12:04:38;;;;;;;15.10;13.93;;;13.60;99.90;;;;;;5005879;28;20053;-71
2022/10/01 12:07:30;;;;;;;16.38;14.13;;;13.70;99.90;;;;;;5009478;28;20045;-69
2022/10/01 12:10:02;;;;;;;16.10;14.43;;;13.70;99.90;;;;;;5007677;28;20045;-71
2022/10/01 12:12:36;;;;;;;16.15;14.95;;;13.80;99.90;;;;;;5006748;28;20560;-70
2022/10/01 12:15:11;;;;;;;14.40;13.40;;;13.90;99.90;;;;;;5008023;28;20045;-70
2022/10/01 12:17:51;;;;;;;14.00;13.18;;;14.00;99.90;;;;;;5007584;28;20566;-70
2022/10/01 12:20:44;;;;;;;14.48;13.55;;;14.00;99.90;;;;;;5009756;28;20636;-70
2022/10/01 12:23:16;;;;;;;14.18;13.27;;;14.20;99.90;;;;;;5013337;28;20159;-69
2022/10/01 12:25:53;;;;;;;15.70;14.55;;;14.50;99.90;;;;;;5007326;28;20041;-70
2022/10/01 12:28:40;;;;;;;17.13;15.77;;;14.40;99.90;;;;;;5010525;28;20040;-69
2022/10/01 12:31:34;;;;;;;16.38;15.27;;;14.30;99.90;;;;;;5015192;28;20243;-70
2022/10/01 12:34:08;;;;;;;15.93;14.80;;;14.30;99.90;;;;;;5011896;28;20048;-71
2022/10/01 12:37:18;;;;;;;16.55;15.20;;;14.50;99.90;;;;;;5008600;28;20415;-70
2022/10/01 12:40:01;;;;;;;15.57;14.73;;;14.50;99.90;;;;;;5001526;28;20041;-70
2022/10/01 12:42:30;;;;;;;14.63;13.73;;;14.40;99.90;;;;;;5001479;28;20046;-69
2022/10/01 12:44:57;;;;;;;16.38;15.27;;;14.40;99.90;;;;;;5013075;28;20042;-70
2022/10/01 12:47:44;;;;;;;15.65;14.43;;;14.40;99.90;;;;;;5004802;28;20500;-70
2022/10/01 12:50:29;;;;;;;15.05;14.27;;;14.50;99.90;;;;;;5007089;28;20519;-70
2022/10/01 12:53:04;;;;;;;;;;;14.50;99.90;;;;;;5012588;28;20330;-70
2022/10/01 12:55:46;;;;;;;17.67;16.63;;;14.50;99.90;;;;;;5004541;28;19921;-70
2022/10/01 12:58:42;;;;;;;17.50;16.60;;;14.70;99.90;;;;;;5007246;28;20412;-70
2022/10/01 13:01:24;;;;;;;18.58;17.48;;;14.60;99.90;;;;;;5014547;28;20065;-69
2022/10/01 13:04:17;;;;;;;18.55;17.35;;;14.60;99.90;;;;;;5009411;28;20060;-69
2022/10/01 13:07:12;;;;;;;19.35;18.40;;;14.60;99.90;;;;;;5008855;28;20046;-70
2022/10/01 13:10:00;;;;;;;18.75;17.85;;;14.60;99.90;;;;;;5012052;28;20804;-70
2022/10/01 13:12:35;;;;;;;17.48;16.38;;;14.50;99.90;;;;;;5048755;23;20037;-71
2022/10/01 13:15:04;;;;;;;16.50;15.63;;;14.30;99.90;;;;;;5052862;28;20040;-72
2022/10/01 13:17:58;;;;;;;15.82;14.88;;;14.30;99.90;;;;;;5024137;28;20718;-75
2022/10/01 13:20:40;;;;;;;15.00;13.95;;;14.10;99.90;;;;;;5001257;28;20049;-73
2022/10/01 13:23:33;;;;;;;13.48;12.57;;;14.00;99.90;;;;;;5016414;28;20057;-73